Time;durP1;ratioP1;P1;durP2;ratioP2;P2;SDS_P1;SDS_P2;PMS_P1;PMS_P2;Temp;Humidity;BMP_temperature;BMP_pressure;BME280_temperature;BME280_humidity;BME280_pressure;Samples;Min_cycle;Max_cycle;Signal;HPM_P1;HPM_P2
2023/06/02 00:02:22;;;;;;;7.30;3.30;;;;;;;21.03;45.58;100344.23;108559;1268;21987;-62
2023/06/02 00:04:49;;;;;;;9.40;3.70;;;;;;;21.02;45.68;100339.85;108413;1273;21991;-63
2023/06/02 00:07:15;;;;;;;9.50;4.00;;;;;;;21.01;45.97;100340.23;108618;1268;21980;-62
2023/06/02 00:09:42;;;;;;;6.50;3.40;;;;;;;21.02;46.09;100334.67;108531;1278;21968;-62
2023/06/02 00:12:10;;;;;;;8.20;3.50;;;;;;;21.02;46.22;100332.30;108683;1279;21980;-73
2023/06/02 00:14:42;;;;;;;6.90;3.10;;;;;;;21.05;46.26;100330.36;108583;1273;21974;-62
2023/06/02 00:17:10;;;;;;;8.30;3.40;;;;;;;21.06;46.47;100328.30;108457;1278;21983;-75
2023/06/02 00:19:42;;;;;;;9.10;5.00;;;;;;;21.05;46.76;100330.37;108419;1278;21990;-74
2023/06/02 00:22:09;;;;;;;9.00;3.90;;;;;;;21.03;46.70;100330.69;108419;1273;23043;-74
2023/06/02 00:24:35;;;;;;;6.90;4.10;;;;;;;21.01;46.75;100329.88;108669;1275;23067;-75
2023/06/02 00:27:00;;;;;;;6.50;3.40;;;;;;;21.01;46.73;100331.29;108477;1274;21979;-74
2023/06/02 00:29:26;;;;;;;8.70;3.50;;;;;;;21.03;46.75;100328.38;108479;1271;21974;-74
2023/06/02 00:31:51;;;;;;;11.50;4.00;;;;;;;21.04;46.87;100325.48;108486;1279;21976;-74
2023/06/02 00:34:17;;;;;;;7.10;3.50;;;;;;;21.04;46.89;100323.27;108392;1277;21990;-64
2023/06/02 00:36:43;;;;;;;7.70;3.50;;;;;;;21.04;46.89;100320.09;108264;1279;348399;-74
2023/06/02 00:39:08;;;;;;;8.90;3.80;;;;;;;21.04;46.78;100324.37;108396;1268;21978;-73
2023/06/02 00:41:34;;;;;;;6.40;3.60;;;;;;;21.03;46.89;100323.54;108568;1279;21991;-74
2023/06/02 00:43:59;;;;;;;7.80;4.50;;;;;;;21.02;46.95;100324.13;108399;1277;22022;-74
2023/06/02 00:46:25;;;;;;;5.80;4.10;;;;;;;21.00;47.24;100320.89;108376;1279;21983;-62
2023/06/02 00:48:51;;;;;;;7.00;4.20;;;;;;;20.96;47.27;100319.65;108361;1279;21981;-75
2023/06/02 00:51:17;;;;;;;7.80;3.70;;;;;;;20.94;47.32;100315.50;108498;1279;21980;-62
2023/06/02 00:53:44;;;;;;;9.00;4.00;;;;;;;20.92;47.26;100310.98;108396;1279;21977;-63
2023/06/02 00:56:13;;;;;;;7.10;3.80;;;;;;;20.90;47.38;100306.23;108394;1279;22016;-74
2023/06/02 00:58:41;;;;;;;9.10;4.20;;;;;;;20.89;47.39;100308.45;108411;1279;21968;-62
2023/06/02 01:01:12;;;;;;;10.70;3.80;;;;;;;20.88;47.66;100307.27;108413;1271;23180;-70
2023/06/02 01:03:39;;;;;;;6.30;4.20;;;;;;;20.84;47.60;100302.65;108509;1277;23790;-74
2023/06/02 01:06:05;;;;;;;9.90;3.90;;;;;;;20.78;47.94;100301.73;108480;1269;21982;-61
2023/06/02 01:08:32;;;;;;;6.40;3.60;;;;;;;20.77;47.78;100303.74;108420;1279;21986;-62
2023/06/02 01:10:58;;;;;;;7.40;4.50;;;;;;;20.76;47.85;100301.66;108390;1279;21984;-62
2023/06/02 01:13:24;;;;;;;7.80;3.70;;;;;;;20.73;47.78;100302.87;108590;1280;21984;-70
2023/06/02 01:15:49;;;;;;;5.80;3.40;;;;;;;20.71;47.97;100301.77;108505;1277;21982;-61
2023/06/02 01:18:16;;;;;;;7.30;3.80;;;;;;;20.67;48.03;100304.98;108476;1268;21987;-75
2023/06/02 01:20:48;;;;;;;8.00;4.10;;;;;;;20.63;47.86;100304.66;108502;1273;22014;-75
2023/06/02 01:23:22;;;;;;;9.80;3.60;;;;;;;20.60;47.78;100304.84;108504;1274;21979;-74
2023/06/02 01:25:49;;;;;;;9.10;3.40;;;;;;;20.58;48.04;100306.02;108430;1279;21987;-70
2023/06/02 01:28:15;;;;;;;6.60;4.10;;;;;;;20.57;48.10;100311.08;108388;1279;21996;-63
2023/06/02 01:30:40;;;;;;;6.00;4.00;;;;;;;20.56;48.07;100312.02;108380;1279;22009;-74
2023/06/02 01:33:18;;;;;;;8.70;4.20;;;;;;;20.56;48.44;100313.48;108494;1271;21952;-63
2023/06/02 01:35:45;;;;;;;9.50;3.90;;;;;;;20.55;48.62;100312.80;108411;1274;21987;-74
2023/06/02 01:38:12;;;;;;;8.60;4.10;;;;;;;20.53;48.62;100308.99;108393;1279;21986;-73
2023/06/02 01:40:38;;;;;;;6.50;4.00;;;;;;;20.50;48.39;100308.61;108462;1268;23602;-62
2023/06/02 01:43:03;;;;;;;5.80;3.70;;;;;;;20.45;48.08;100307.25;108434;1272;22447;-63
2023/06/02 01:45:30;;;;;;;5.60;3.50;;;;;;;20.40;47.87;100304.52;107652;1279;1003222;-63
2023/06/02 01:48:01;;;;;;;4.70;3.40;;;;;;;20.33;47.77;100304.88;108557;1274;23735;-74
2023/06/02 01:50:27;;;;;;;8.10;3.50;;;;;;;20.25;47.56;100303.55;108426;1279;21981;-70
2023/06/02 01:52:52;;;;;;;6.50;3.50;;;;;;;20.18;47.46;100302.70;108491;1277;21985;-76
2023/06/02 01:55:18;;;;;;;6.60;3.60;;;;;;;20.14;47.53;100306.05;108505;1274;21980;-76
2023/06/02 01:57:44;;;;;;;4.80;3.20;;;;;;;20.13;47.58;100308.11;108628;1274;21970;-62
2023/06/02 02:00:10;;;;;;;7.80;3.30;;;;;;;20.09;47.56;100307.79;108499;1268;21983;-64
2023/06/02 02:02:37;;;;;;;7.30;3.20;;;;;;;20.05;47.47;100307.77;108694;1277;21977;-76
2023/06/02 02:05:03;;;;;;;5.60;3.10;;;;;;;20.01;47.37;100308.34;108544;1269;22450;-63
2023/06/02 02:07:30;;;;;;;10.40;3.50;;;;;;;19.95;47.13;100304.23;108534;1271;21978;-76
2023/06/02 02:09:56;;;;;;;6.10;3.30;;;;;;;19.87;47.13;100305.88;108389;1274;21978;-62
2023/06/02 02:12:22;;;;;;;5.50;3.40;;;;;;;19.78;47.11;100304.19;108500;1268;21983;-75
2023/06/02 02:14:53;;;;;;;4.50;3.10;;;;;;;19.68;47.09;100303.83;108396;1279;21980;-63
2023/06/02 02:17:19;;;;;;;6.90;3.30;;;;;;;19.60;47.28;100304.96;108412;1277;21975;-77
2023/06/02 02:19:50;;;;;;;5.50;3.50;;;;;;;19.52;47.29;100299.28;108411;1274;21980;-75
2023/06/02 02:22:16;;;;;;;;;;;;;;;19.44;47.41;100300.23;108407;1274;21997;-77
2023/06/02 02:24:41;;;;;;;8.50;3.70;;;;;;;19.36;47.45;100302.59;108417;1276;21976;-76
2023/06/02 02:27:08;;;;;;;6.60;3.30;;;;;;;19.29;47.68;100302.39;108420;1279;23401;-75
2023/06/02 02:29:35;;;;;;;6.10;3.50;;;;;;;19.25;47.82;100301.87;108366;1271;21976;-77
2023/06/02 02:32:01;;;;;;;5.90;3.30;;;;;;;19.25;47.83;100304.39;108389;1274;21978;-75
2023/06/02 02:34:28;;;;;;;6.70;3.30;;;;;;;19.22;48.00;100304.88;108409;1274;21981;-63
2023/06/02 02:36:58;;;;;;;5.00;3.10;;;;;;;19.18;48.08;100307.39;108389;1279;21985;-61
2023/06/02 02:39:24;;;;;;;6.50;3.60;;;;;;;19.16;48.14;100304.61;108469;1279;21975;-62
2023/06/02 02:41:50;;;;;;;8.20;3.70;;;;;;;19.17;48.25;100301.73;108401;1277;23708;-61
2023/06/02 02:44:15;;;;;;;13.40;3.70;;;;;;;19.21;48.39;100302.80;108410;1279;21979;-61
2023/06/02 02:46:41;;;;;;;6.80;3.80;;;;;;;19.27;48.66;100303.39;108398;1279;21992;-61
2023/06/02 02:49:08;;;;;;;8.70;3.60;;;;;;;19.32;49.14;100304.23;108407;1274;21991;-61
2023/06/02 02:51:35;;;;;;;7.20;3.70;;;;;;;19.35;49.27;100304.94;108396;1271;21982;-62
2023/06/02 02:54:01;;;;;;;9.90;3.60;;;;;;;19.41;49.37;100307.33;108380;1271;22240;-73
2023/06/02 02:56:27;;;;;;;9.50;3.90;;;;;;;19.45;49.48;100304.95;108420;1269;22445;-74
2023/06/02 02:58:52;;;;;;;8.80;4.20;;;;;;;19.51;49.82;100307.35;108502;1277;21983;-63
2023/06/02 03:01:18;;;;;;;11.00;4.50;;;;;;;19.57;50.16;100309.54;108411;1274;21988;-76
2023/06/02 03:03:44;;;;;;;11.30;5.60;;;;;;;19.64;50.31;100311.29;108419;1268;21982;-76
2023/06/02 03:06:18;;;;;;;8.80;4.50;;;;;;;19.72;50.51;100309.33;108753;1271;22021;-74
2023/06/02 03:08:45;;;;;;;8.30;5.10;;;;;;;19.79;50.72;100311.99;108563;1271;21979;-73
2023/06/02 03:11:11;;;;;;;7.00;4.40;;;;;;;19.86;50.98;100311.09;108435;1274;22040;-73
2023/06/02 03:13:36;;;;;;;15.40;5.40;;;;;;;19.92;51.09;100308.11;108375;1274;21983;-69
2023/06/02 03:16:02;;;;;;;12.40;4.30;;;;;;;19.97;51.30;100308.56;108562;1279;21977;-72
2023/06/02 03:18:28;;;;;;;7.50;4.20;;;;;;;20.05;51.43;100308.16;108530;1279;22268;-73
2023/06/02 03:20:55;;;;;;;14.80;5.20;;;;;;;20.13;51.61;100306.66;108424;1273;21979;-72
2023/06/02 03:23:21;;;;;;;9.90;3.80;;;;;;;20.23;51.68;100302.77;108471;1277;21988;-72
2023/06/02 03:25:49;;;;;;;12.10;5.90;;;;;;;20.33;51.77;100302.21;108387;1268;21985;-62
2023/06/02 03:28:15;;;;;;;10.30;5.10;;;;;;;20.44;51.95;100299.84;108450;1279;21979;-62
2023/06/02 03:30:41;;;;;;;12.80;5.40;;;;;;;20.53;51.99;100298.45;108494;1274;23049;-72
2023/06/02 03:33:07;;;;;;;9.00;3.90;;;;;;;20.62;52.17;100300.64;108429;1279;21979;-73
2023/06/02 03:35:33;;;;;;;16.50;4.50;;;;;;;20.71;52.11;100300.67;108447;1275;21982;-63
2023/06/02 03:37:58;;;;;;;12.60;4.50;;;;;;;20.81;52.29;100299.80;108491;1274;24016;-63
2023/06/02 03:40:24;;;;;;;17.80;4.20;;;;;;;20.91;52.62;100296.04;108422;1279;21993;-64
2023/06/02 03:42:50;;;;;;;13.40;4.90;;;;;;;21.03;52.72;100297.49;108394;1277;21979;-63
2023/06/02 03:45:15;;;;;;;8.70;4.50;;;;;;;21.17;53.05;100298.66;108387;1279;21980;-72
2023/06/02 03:47:41;;;;;;;29.90;5.20;;;;;;;21.29;53.05;100296.70;108395;1274;21983;-72
2023/06/02 03:50:07;;;;;;;32.10;5.50;;;;;;;21.46;52.42;100298.25;108403;1274;21978;-59
2023/06/02 03:52:32;;;;;;;16.60;5.60;;;;;;;21.76;52.21;100293.09;108448;1274;21982;-62
2023/06/02 03:54:58;;;;;;;20.80;5.80;;;;;;;22.10;51.90;100291.40;108391;1279;21980;-74
2023/06/02 03:57:24;;;;;;;9.00;4.70;;;;;;;22.41;51.76;100287.16;108409;1273;21982;-61
2023/06/02 03:59:50;;;;;;;13.80;4.90;;;;;;;22.66;51.85;100284.48;108401;1277;21982;-60
2023/06/02 04:02:16;;;;;;;9.90;4.70;;;;;;;22.88;51.25;100283.45;108382;1274;21990;-74
2023/06/02 04:04:42;;;;;;;13.60;5.10;;;;;;;23.09;50.96;100281.73;108415;1275;21993;-60
2023/06/02 04:07:08;;;;;;;18.00;5.50;;;;;;;23.29;51.62;100280.95;108613;1273;21975;-69
2023/06/02 04:09:34;;;;;;;10.90;5.40;;;;;;;23.42;52.07;100280.77;108473;1279;21988;-69
2023/06/02 04:12:00;;;;;;;6.80;4.40;;;;;;;23.49;52.59;100280.67;108567;1268;21985;-61
2023/06/02 04:14:27;;;;;;;16.00;5.60;;;;;;;23.54;53.36;100283.77;108548;1274;22071;-62
2023/06/02 04:16:54;;;;;;;13.40;5.10;;;;;;;23.62;52.71;100286.13;108558;1268;21988;-69
2023/06/02 04:19:19;;;;;;;8.40;4.80;;;;;;;23.73;53.00;100284.25;108589;1274;22447;-71
2023/06/02 04:21:45;;;;;;;8.70;5.20;;;;;;;23.83;54.38;100283.03;108444;1279;21994;-71
2023/06/02 04:24:11;;;;;;;9.00;4.80;;;;;;;23.89;54.09;100283.65;108581;1279;21994;-63
2023/06/02 04:26:38;;;;;;;7.70;4.30;;;;;;;23.95;54.31;100282.53;108568;1277;21978;-71
2023/06/02 04:29:03;;;;;;;11.10;4.40;;;;;;;24.05;54.63;100282.63;108450;1280;22015;-70
2023/06/02 04:31:39;;;;;;;11.50;4.90;;;;;;;24.15;54.88;100282.11;108466;1278;22754;-62
2023/06/02 04:34:06;;;;;;;10.30;4.60;;;;;;;24.26;55.30;100280.98;108545;1280;21980;-64
2023/06/02 04:36:32;;;;;;;7.50;4.00;;;;;;;24.38;55.50;100278.52;108553;1280;21984;-62
2023/06/02 04:38:57;;;;;;;6.20;4.50;;;;;;;24.48;55.37;100279.36;108434;1274;21985;-62
2023/06/02 04:41:24;;;;;;;10.50;4.60;;;;;;;24.62;56.02;100281.75;108495;1277;22370;-69
2023/06/02 04:43:50;;;;;;;9.20;4.40;;;;;;;24.77;55.83;100283.41;108532;1278;21986;-64
2023/06/02 04:46:16;;;;;;;6.80;4.30;;;;;;;24.89;56.14;100278.39;108506;1271;21981;-62
2023/06/02 04:48:42;;;;;;;10.10;4.20;;;;;;;25.02;55.24;100276.90;108535;1280;21983;-63
2023/06/02 04:51:08;;;;;;;9.10;3.90;;;;;;;25.13;55.47;100278.79;108478;1277;21988;-70
2023/06/02 04:53:34;;;;;;;7.40;4.10;;;;;;;25.25;55.76;100282.77;108452;1280;22099;-71
2023/06/02 04:55:59;;;;;;;8.60;4.20;;;;;;;25.38;56.06;100286.27;108510;1280;22028;-70
2023/06/02 04:58:25;;;;;;;6.40;3.80;;;;;;;25.51;56.35;100289.23;108496;1280;22004;-63
2023/06/02 05:00:51;;;;;;;8.70;3.90;;;;;;;25.64;55.90;100290.45;108447;1280;21988;-63
2023/06/02 05:03:17;;;;;;;6.30;3.90;;;;;;;25.76;55.90;100285.89;108468;1274;21982;-70
2023/06/02 05:05:43;;;;;;;8.30;3.50;;;;;;;25.87;55.90;100281.79;108511;1277;22014;-64
2023/06/02 05:08:08;;;;;;;8.00;3.90;;;;;;;26.01;54.85;100284.15;108476;1280;22018;-69
2023/06/02 05:10:34;;;;;;;6.70;4.10;;;;;;;26.11;55.31;100287.70;108459;1280;21987;-71
2023/06/02 05:13:00;;;;;;;8.70;4.20;;;;;;;26.21;54.79;100284.77;108478;1278;21982;-65
2023/06/02 05:15:25;;;;;;;7.70;4.00;;;;;;;26.36;54.43;100282.50;108441;1277;21983;-70
2023/06/02 05:17:53;;;;;;;12.20;4.50;;;;;;;26.54;54.53;100280.01;108516;1271;21979;-66
2023/06/02 05:20:19;;;;;;;8.40;3.70;;;;;;;26.70;53.43;100281.00;108452;1277;21981;-66
2023/06/02 05:22:44;;;;;;;11.50;4.20;;;;;;;26.82;53.79;100280.95;108446;1279;21979;-66
2023/06/02 05:25:10;;;;;;;5.30;3.80;;;;;;;26.97;54.03;100280.10;108421;1279;21981;-69
2023/06/02 05:27:36;;;;;;;5.70;4.10;;;;;;;27.09;53.04;100282.00;108420;1274;22017;-68
2023/06/02 05:30:03;;;;;;;5.90;3.50;;;;;;;27.15;52.83;100280.60;108481;1274;21985;-66
2023/06/02 05:32:30;;;;;;;8.10;4.20;;;;;;;27.27;52.78;100282.66;108517;1273;22443;-66
2023/06/02 05:34:55;;;;;;;6.30;3.60;;;;;;;27.43;52.41;100280.27;108465;1280;21985;-64
2023/06/02 05:37:21;;;;;;;9.40;3.70;;;;;;;27.59;52.43;100278.73;108575;1280;24428;-68
2023/06/02 05:39:46;;;;;;;9.50;4.20;;;;;;;27.76;51.71;100279.25;108458;1280;21993;-64
2023/06/02 05:42:12;;;;;;;7.50;3.80;;;;;;;27.89;51.15;100278.49;108503;1271;21954;-66
2023/06/02 05:44:38;;;;;;;5.90;3.70;;;;;;;28.03;51.09;100280.36;108552;1280;21992;-67
2023/06/02 05:47:04;;;;;;;8.30;3.60;;;;;;;28.19;50.87;100282.36;108463;1280;21980;-67
2023/06/02 05:49:30;;;;;;;5.90;3.90;;;;;;;28.37;50.68;100285.48;108470;1275;21987;-64
2023/06/02 05:51:55;;;;;;;7.20;3.60;;;;;;;28.50;50.39;100281.52;108503;1279;21983;-63
2023/06/02 05:54:21;;;;;;;6.70;3.70;;;;;;;28.64;50.01;100284.58;108551;1280;21999;-67
2023/06/02 05:56:46;;;;;;;7.20;3.10;;;;;;;28.74;49.37;100288.52;108477;1280;21981;-64
2023/06/02 05:59:12;;;;;;;7.50;3.70;;;;;;;28.82;48.89;100285.70;108510;1271;21990;-66
2023/06/02 06:01:38;;;;;;;6.20;3.50;;;;;;;28.91;48.59;100287.55;108459;1271;21980;-68
2023/06/02 06:04:03;;;;;;;6.60;3.60;;;;;;;29.06;48.68;100282.27;108505;1274;21992;-63
2023/06/02 06:06:29;;;;;;;5.70;3.50;;;;;;;29.24;48.04;100279.52;108423;1274;21989;-67
2023/06/02 06:08:55;;;;;;;6.60;3.50;;;;;;;29.36;47.41;100275.48;108429;1274;21982;-66
2023/06/02 06:11:21;;;;;;;8.40;3.40;;;;;;;29.47;47.39;100277.44;108586;1280;21987;-63
2023/06/02 06:13:47;;;;;;;6.80;3.20;;;;;;;29.63;47.17;100277.66;108452;1277;22028;-66
2023/06/02 06:16:13;;;;;;;7.00;3.70;;;;;;;29.75;46.69;100278.35;108520;1271;21995;-67
2023/06/02 06:18:38;;;;;;;8.30;3.60;;;;;;;29.92;46.69;100281.48;108645;1271;21977;-64
2023/06/02 06:21:04;;;;;;;8.30;3.20;;;;;;;30.10;46.88;100279.44;108687;1279;21977;-63
2023/06/02 06:23:30;;;;;;;5.50;3.80;;;;;;;30.29;46.48;100279.39;108458;1279;22014;-64
2023/06/02 06:25:56;;;;;;;6.60;3.80;;;;;;;30.54;46.82;100275.70;108419;1277;21979;-68
2023/06/02 06:28:21;;;;;;;6.90;3.60;;;;;;;30.85;46.47;100273.10;108430;1279;21980;-67
2023/06/02 06:30:49;;;;;;;5.60;3.70;;;;;;;31.12;45.42;100272.18;108415;1268;21973;-63
2023/06/02 06:33:15;;;;;;;8.50;3.60;;;;;;;31.30;44.60;100268.01;108547;1278;21988;-68
2023/06/02 06:35:40;;;;;;;6.90;3.50;;;;;;;31.44;43.91;100267.30;108476;1279;21998;-67
2023/06/02 06:38:06;;;;;;;6.40;3.10;;;;;;;31.57;42.36;100267.66;108462;1279;22032;-67
2023/06/02 06:40:31;;;;;;;5.70;3.10;;;;;;;31.68;42.35;100268.35;108458;1279;22036;-63
2023/06/02 06:42:57;;;;;;;6.50;3.60;;;;;;;31.84;41.41;100265.59;108617;1274;21980;-65
2023/06/02 06:45:23;;;;;;;5.60;3.00;;;;;;;32.03;41.37;100265.66;108428;1279;21988;-67
2023/06/02 06:47:50;;;;;;;6.20;3.30;;;;;;;32.22;40.76;100269.44;108414;1275;21993;-64
2023/06/02 06:50:15;;;;;;;6.00;3.20;;;;;;;32.36;39.34;100266.59;108455;1279;21981;-65
2023/06/02 06:52:45;;;;;;;4.60;3.00;;;;;;;32.46;39.19;100260.02;108431;1275;21997;-67
2023/06/02 06:55:10;;;;;;;6.00;3.00;;;;;;;32.57;38.17;100256.34;108477;1279;21989;-67
2023/06/02 06:57:37;;;;;;;5.60;3.00;;;;;;;32.58;37.54;100257.30;108435;1279;21979;-64
2023/06/02 07:00:03;;;;;;;6.10;3.00;;;;;;;32.54;37.43;100254.46;108411;1279;22316;-67
2023/06/02 07:02:31;;;;;;;9.90;3.50;;;;;;;32.51;36.93;100254.96;108565;1274;21979;-64
2023/06/02 07:04:57;;;;;;;7.70;3.40;;;;;;;32.49;35.82;100249.89;108465;1279;21988;-67
2023/06/02 07:07:23;;;;;;;6.90;3.10;;;;;;;32.55;35.29;100248.40;108485;1279;22039;-65
2023/06/02 07:09:49;;;;;;;4.80;3.20;;;;;;;32.65;35.02;100248.39;108661;1275;21946;-66
2023/06/02 07:12:14;;;;;;;6.90;3.30;;;;;;;32.74;34.52;100249.10;108462;1279;24326;-64
2023/06/02 07:14:41;;;;;;;7.00;3.00;;;;;;;32.88;35.40;100246.69;108403;1279;21984;-68
2023/06/02 07:17:07;;;;;;;5.70;3.20;;;;;;;33.09;35.35;100248.21;108426;1279;22016;-67
2023/06/02 07:19:33;;;;;;;5.60;3.00;;;;;;;33.21;33.67;100249.94;108475;1279;21979;-67
2023/06/02 07:21:58;;;;;;;5.80;3.50;;;;;;;33.30;34.77;100247.60;108480;1279;21977;-64
2023/06/02 07:24:24;;;;;;;4.60;2.90;;;;;;;33.47;34.77;100249.48;108423;1279;21979;-68
2023/06/02 07:26:49;;;;;;;5.40;2.90;;;;;;;33.59;33.92;100251.65;108475;1273;21986;-67
2023/06/02 07:29:15;;;;;;;6.40;2.90;;;;;;;33.71;33.51;100250.27;108421;1279;22778;-67
2023/06/02 07:31:43;;;;;;;4.70;3.00;;;;;;;33.79;32.20;100253.55;108489;1279;22017;-69
2023/06/02 07:34:08;;;;;;;7.10;2.90;;;;;;;33.88;32.92;100254.35;108485;1279;21978;-67
2023/06/02 07:36:35;;;;;;;4.90;3.00;;;;;;;33.95;32.75;100259.76;108480;1279;23751;-67
2023/06/02 07:39:00;;;;;;;5.70;3.40;;;;;;;33.97;32.05;100259.92;108523;1268;21988;-66
2023/06/02 07:41:27;;;;;;;11.40;3.60;;;;;;;33.90;31.09;100257.77;108607;1279;21978;-65
2023/06/02 07:43:54;;;;;;;7.30;3.30;;;;;;;33.68;29.52;100258.42;108428;1277;21986;-69
2023/06/02 07:46:22;;;;;;;4.60;3.20;;;;;;;33.57;30.39;100257.98;108501;1279;21990;-68
2023/06/02 07:48:50;;;;;;;5.30;3.40;;;;;;;33.63;30.26;100259.30;108515;1279;21988;-68
2023/06/02 07:51:16;;;;;;;7.60;3.40;;;;;;;33.65;29.53;100257.81;108479;1279;21985;-67
2023/06/02 07:53:42;;;;;;;5.10;2.90;;;;;;;33.74;30.36;100255.34;108534;1279;22740;-68
2023/06/02 07:56:07;;;;;;;7.10;3.00;;;;;;;33.84;30.25;100252.85;108378;1279;21990;-68
2023/06/02 07:58:33;;;;;;;6.70;3.30;;;;;;;33.83;30.24;100250.71;108437;1279;21980;-68
2023/06/02 08:01:00;;;;;;;7.60;3.20;;;;;;;33.83;29.74;100251.32;108458;1279;21980;-67
2023/06/02 08:03:25;;;;;;;5.20;3.30;;;;;;;33.87;30.03;100250.47;108454;1274;21947;-68
2023/06/02 08:05:51;;;;;;;3.90;2.90;;;;;;;33.94;30.15;100251.91;108439;1268;21980;-68
2023/06/02 08:08:17;;;;;;;5.80;3.10;;;;;;;34.01;29.71;100247.52;108490;1279;22037;-68
2023/06/02 08:10:42;;;;;;;14.70;4.30;;;;;;;34.15;29.94;100242.11;108495;1270;22139;-67
2023/06/02 08:13:11;;;;;;;4.90;3.10;;;;;;;34.26;29.54;100244.11;108432;1279;21983;-68
2023/06/02 08:15:37;;;;;;;7.00;2.90;;;;;;;34.35;29.74;100243.24;108470;1279;21978;-68
2023/06/02 08:18:03;;;;;;;8.70;3.40;;;;;;;34.50;29.48;100243.35;108380;1279;21988;-67
2023/06/02 08:20:29;;;;;;;6.70;3.50;;;;;;;34.66;29.59;100244.02;108462;1280;21976;-66
2023/06/02 08:22:56;;;;;;;5.30;3.10;;;;;;;34.78;29.53;100242.61;108425;1280;21984;-68
2023/06/02 08:25:22;;;;;;;8.60;3.40;;;;;;;34.89;29.63;100241.17;108467;1280;21979;-67
2023/06/02 08:27:47;;;;;;;8.80;3.20;;;;;;;35.04;29.40;100240.95;108439;1278;21977;-68
2023/06/02 08:30:13;;;;;;;6.90;3.00;;;;;;;35.13;28.46;100232.70;108533;1279;21946;-68
2023/06/02 08:32:39;;;;;;;4.40;2.80;;;;;;;35.11;27.95;100229.09;108537;1279;21995;-67
2023/06/02 08:35:07;;;;;;;6.80;3.10;;;;;;;35.18;28.65;100228.48;108523;1273;21981;-69
2023/06/02 08:37:33;;;;;;;7.60;3.90;;;;;;;35.30;27.95;100229.19;108419;1279;24403;-67
2023/06/02 08:39:59;;;;;;;5.90;3.70;;;;;;;35.42;28.05;100228.67;108420;1279;22304;-68
2023/06/02 08:42:26;;;;;;;5.50;3.50;;;;;;;35.58;28.01;100232.98;108404;1279;22014;-68
2023/06/02 08:44:52;;;;;;;4.20;3.00;;;;;;;35.55;27.23;100234.09;108492;1279;21991;-67
2023/06/02 08:47:24;;;;;;;12.00;3.50;;;;;;;35.53;26.96;100231.02;108488;1279;21988;-67
2023/06/02 08:49:49;;;;;;;4.60;2.90;;;;;;;35.58;27.48;100231.17;108586;1268;21990;-67
2023/06/02 08:52:23;;;;;;;5.00;2.50;;;;;;;35.66;27.41;100228.39;108513;1273;21986;-68
2023/06/02 08:54:49;;;;;;;7.30;2.80;;;;;;;35.72;26.70;100227.46;108485;1279;21974;-68
2023/06/02 08:57:16;;;;;;;6.00;2.90;;;;;;;35.88;25.62;100224.42;108470;1279;21983;-67
2023/06/02 08:59:43;;;;;;;4.80;2.70;;;;;;;36.05;26.45;100224.45;108421;1275;21971;-68
2023/06/02 09:02:09;;;;;;;6.60;3.10;;;;;;;36.22;26.41;100225.17;108530;1275;22789;-68
2023/06/02 09:04:36;;;;;;;5.80;2.90;;;;;;;36.25;26.40;100223.27;108466;1279;22040;-67
2023/06/02 09:07:11;;;;;;;5.00;2.90;;;;;;;36.46;26.92;100225.05;108472;1279;21986;-68
2023/06/02 09:09:52;;;;;;;6.80;3.20;;;;;;;36.73;25.56;100223.32;108408;1274;22451;-66
2023/06/02 09:12:19;;;;;;;5.20;2.90;;;;;;;37.03;26.27;100224.14;108449;1278;21990;-67
2023/06/02 09:14:49;;;;;;;5.40;3.10;;;;;;;37.29;26.34;100218.95;108619;1279;22433;-68
2023/06/02 09:17:33;;;;;;;12.90;3.40;;;;;;;37.44;25.99;100221.59;108475;1279;21982;-69
2023/06/02 09:20:05;;;;;;;15.90;3.00;;;;;;;37.59;25.13;100218.56;108475;1273;22153;-68
2023/06/02 09:22:31;;;;;;;7.20;2.60;;;;;;;37.82;25.78;100213.01;108469;1279;21989;-67
2023/06/02 09:25:00;;;;;;;10.40;4.10;;;;;;;37.99;25.81;100212.73;108494;1279;21979;-67
2023/06/02 09:27:26;;;;;;;14.50;3.20;;;;;;;37.91;24.73;100210.02;108457;1280;22141;-67
2023/06/02 09:30:00;;;;;;;6.70;3.60;;;;;;;37.87;26.03;100208.02;108432;1280;21982;-67
2023/06/02 09:32:26;;;;;;;5.90;3.20;;;;;;;37.91;25.57;100207.15;108268;1280;23634;-67
2023/06/02 09:34:52;;;;;;;5.60;3.10;;;;;;;37.66;24.82;100202.14;108580;1280;22007;-68
2023/06/02 09:37:18;;;;;;;5.60;2.90;;;;;;;37.44;24.93;100196.42;108444;1271;22152;-67
2023/06/02 09:39:53;;;;;;;5.20;3.10;;;;;;;37.48;25.52;100193.49;108553;1280;21982;-67
2023/06/02 09:42:19;;;;;;;4.90;3.00;;;;;;;37.74;25.30;100191.80;108613;1277;21986;-68
2023/06/02 09:45:08;;;;;;;5.30;2.70;;;;;;;37.92;24.99;100196.39;108415;1280;21983;-69
2023/06/02 09:47:38;;;;;;;5.30;2.80;;;;;;;37.80;23.64;100193.19;108423;1275;22755;-68
2023/06/02 09:50:04;;;;;;;;;;;;;;;37.69;24.00;100192.61;108452;1278;21963;-68
2023/06/02 09:52:31;;;;;;;5.80;4.00;;;;;;;37.66;22.83;100191.75;108523;1278;21997;-67
2023/06/02 09:54:56;;;;;;;13.10;7.50;;;;;;;37.63;23.52;100190.85;108517;1280;21980;-69
2023/06/02 09:57:22;;;;;;;16.60;11.20;;;;;;;37.60;23.64;100190.48;108481;1280;21986;-70
2023/06/02 09:59:48;;;;;;;23.20;15.60;;;;;;;37.64;23.49;100187.09;108753;1280;21996;-68
2023/06/02 10:02:14;;;;;;;7.20;3.90;;;;;;;37.65;23.67;100191.29;108490;1280;21992;-69
2023/06/02 10:04:39;;;;;;;6.80;3.40;;;;;;;37.46;23.50;100192.29;108426;1280;21985;-70
2023/06/02 10:07:24;;;;;;;4.10;3.30;;;;;;;37.25;23.97;100188.71;108531;1280;21981;-70
2023/06/02 10:09:55;;;;;;;4.80;3.00;;;;;;;37.24;24.44;100186.05;108433;1278;21986;-67
2023/06/02 10:12:20;;;;;;;6.70;2.80;;;;;;;37.39;24.13;100180.58;108547;1273;21991;-66
2023/06/02 10:15:06;;;;;;;5.20;2.90;;;;;;;37.52;24.41;100176.12;108464;1280;21980;-68
2023/06/02 10:17:38;;;;;;;9.90;3.60;;;;;;;37.72;23.99;100181.05;108546;1279;21982;-68
2023/06/02 10:20:14;;;;;;;6.50;4.30;;;;;;;37.72;23.43;100176.63;108444;1278;21990;-68
2023/06/02 10:22:45;;;;;;;5.10;3.30;;;;;;;37.70;23.33;100175.86;108468;1267;22805;-68
2023/06/02 10:25:23;;;;;;;5.60;3.20;;;;;;;37.58;23.47;100179.49;108411;1279;23618;-69
2023/06/02 10:27:48;;;;;;;5.20;2.70;;;;;;;37.52;23.93;100176.17;108466;1268;22015;-68
2023/06/02 10:30:21;;;;;;;7.20;3.30;;;;;;;37.55;23.61;100176.52;108417;1277;21947;-70
2023/06/02 10:32:48;;;;;;;5.00;3.10;;;;;;;37.69;24.01;100173.40;108615;1278;21990;-68
2023/06/02 10:35:14;;;;;;;4.30;3.10;;;;;;;37.73;23.71;100174.52;108591;1280;23750;-68
2023/06/02 10:37:40;;;;;;;10.60;3.50;;;;;;;37.58;23.65;100173.42;108557;1274;22002;-67
2023/06/02 10:40:10;;;;;;;4.30;2.60;;;;;;;37.46;23.36;100167.61;108479;1277;21986;-69
2023/06/02 10:42:35;;;;;;;4.10;3.10;;;;;;;37.34;23.36;100175.73;108593;1280;22150;-68
2023/06/02 10:45:26;;;;;;;6.80;3.20;;;;;;;37.19;23.16;100174.73;108529;1280;22019;-68
2023/06/02 10:47:52;;;;;;;4.60;2.60;;;;;;;37.25;23.99;100172.63;108548;1274;22014;-65
2023/06/02 10:50:21;;;;;;;7.10;3.80;;;;;;;37.52;24.08;100174.52;108484;1280;21982;-68
2023/06/02 10:53:04;;;;;;;7.50;3.40;;;;;;;37.78;23.76;100169.30;108456;1280;21982;-67
2023/06/02 10:55:31;;;;;;;7.70;2.80;;;;;;;37.98;23.68;100163.20;108597;1280;21979;-67
2023/06/02 10:58:03;;;;;;;9.20;3.40;;;;;;;38.06;23.69;100166.28;108556;1280;22118;-69
2023/06/02 11:00:29;;;;;;;5.80;3.20;;;;;;;37.98;23.18;100164.89;108506;1280;21987;-68
2023/06/02 11:02:55;;;;;;;7.10;3.40;;;;;;;37.83;22.93;100164.25;108599;1279;22046;-69
2023/06/02 11:05:25;;;;;;;4.80;3.00;;;;;;;37.74;23.14;100165.98;108707;1279;22039;-67
2023/06/02 11:08:14;;;;;;;7.00;3.20;;;;;;;37.63;22.45;100170.55;108435;1279;21992;-66
2023/06/02 11:10:56;;;;;;;3.90;3.10;;;;;;;37.47;22.62;100165.63;108379;1279;21995;-67
2023/06/02 11:13:23;;;;;;;3.70;2.90;;;;;;;37.38;23.01;100163.44;108504;1279;22152;-67
2023/06/02 11:15:58;;;;;;;5.90;2.80;;;;;;;37.44;23.47;100156.83;108512;1279;21985;-66
2023/06/02 11:18:31;;;;;;;7.50;3.40;;;;;;;37.59;23.29;100162.58;108520;1279;21985;-67